This is the latest recevied weather packets stored in our database for station/object KB1JDX. If no packets are shown the sender has not sent any weather packets the latest 10 day(s).
| Time | Temp. | Humidity | Pressure | Rain* | Wind** | Luminosity | Snow |
|---|---|---|---|---|---|---|---|
| 1788042673 | 23.33° C | 52% | 1020.6 hPa | 0 mm | 0 m/s | - | - |
| 1788040338 | 24.44° C | 47% | 1020.7 hPa | 0 mm | 0 m/s | - | - |
| 1788039138 | 25.56° C | 46% | 1020.9 hPa | 0 mm | 0 m/s | - | - |
| 1788039073 | 25.56° C | 46% | 1020.8 hPa | 0 mm | 0 m/s | - | - |
| 1788037937 | 26.67° C | 43% | 1020.8 hPa | 0 mm | 0 m/s | - | - |
| 1788036737 | 26.11° C | 46% | 1021 hPa | 0 mm | 0 m/s | - | - |
| 1788035473 | 25.56° C | 44% | 1020.8 hPa | 0 mm | 0 m/s | - | - |
| 1788033140 | 26.67° C | 42% | 1021.2 hPa | 0 mm | 0 m/s | - | - |
| 1788031938 | 26.11° C | 43% | 1021.3 hPa | 0 mm | 0 m/s | - | - |
| 1788031873 | 26.11° C | 44% | 1021.3 hPa | 0 mm | 0 m/s | - | - |
| 1788030737 | 26.11° C | 43% | 1021.5 hPa | 0 mm | 0 m/s | - | - |
| 1788029538 | 25.56° C | 45% | 1021.6 hPa | 0 mm | 0 m/s | - | - |
| 1788028339 | 26.11° C | 42% | 1022 hPa | 0 mm | 0 m/s | - | - |
| 1788028273 | 26.11° C | 43% | 1021.9 hPa | 0 mm | 0 m/s | - | - |
| 1788027137 | 25° C | 48% | 1021.8 hPa | 0 mm | 0 m/s | - | - |
| 1788025939 | 25.56° C | 46% | 1021.9 hPa | 0 mm | 0 m/s | - | - |
| 1788024739 | 25.56° C | 47% | 1021.8 hPa | 0 mm | 0 m/s | - | - |
| 1788024673 | 25.56° C | 47% | 1021.9 hPa | 0 mm | 0 m/s | - | - |
| 1788023539 | 24.44° C | 50% | 1021.9 hPa | 0 mm | 0 m/s | - | - |
| 1788022339 | 23.89° C | 48% | 1022.2 hPa | 0 mm | 0 m/s | - | - |
| 1788021137 | 24.44° C | 46% | 1022.3 hPa | 0 mm | 0 m/s | - | - |
| 1788021073 | 24.44° C | 47% | 1022.3 hPa | 0 mm | 0 m/s | - | - |
| 1788018737 | 23.33° C | 49% | 1022.3 hPa | 0 mm | 0 m/s | - | - |
| 1788017537 | 22.78° C | 49% | 1022.6 hPa | 0 mm | 0 m/s | - | - |
| 1788017473 | 22.78° C | 48% | 1022.6 hPa | 0 mm | 0 m/s | - | - |
* Rain latest hour (hover to see other rain measurements)
** Current wind speed in m/s (hover to see current wind gust speed)